Time;durP1;ratioP1;P1;durP2;ratioP2;P2;SDS_P1;SDS_P2;PMS_P1;PMS_P2;Temp;Humidity;BMP_temperature;BMP_pressure;BME280_temperature;BME280_humidity;BME280_pressure;Samples;Min_cycle;Max_cycle;Signal;HPM_P1;HPM_P2
2022/05/09 00:02:28;;;;;;;7.60;6.97;;;;;;;10.50;100.00;97790.34;5009610;28;20252;-58
2022/05/09 00:04:57;;;;;;;7.20;6.70;;;;;;;10.52;100.00;97786.50;5037946;28;20474;-59
2022/05/09 00:07:26;;;;;;;7.47;6.97;;;;;;;10.40;100.00;97787.88;5045012;28;20206;-55
2022/05/09 00:09:54;;;;;;;7.57;7.07;;;;;;;10.26;100.00;97787.53;4984085;28;20345;-60
2022/05/09 00:12:22;;;;;;;7.97;7.27;;;;;;;10.23;100.00;97790.53;5042889;28;20657;-57
2022/05/09 00:14:50;;;;;;;7.83;7.30;;;;;;;10.14;100.00;97788.84;5041973;28;20201;-57
2022/05/09 00:17:19;;;;;;;7.73;7.17;;;;;;;10.11;100.00;97787.38;5017541;28;20346;-57
2022/05/09 00:19:47;;;;;;;7.70;7.20;;;;;;;10.02;100.00;97793.63;5042067;28;20590;-59
2022/05/09 00:22:17;;;;;;;7.13;6.70;;;;;;;10.03;100.00;97786.53;5042894;28;20245;-57
2022/05/09 00:24:45;;;;;;;8.33;7.63;;;;;;;10.02;100.00;97780.41;5026565;28;20297;-56
2022/05/09 00:27:13;;;;;;;7.97;7.37;;;;;;;9.92;100.00;97790.34;5002533;28;20237;-56
2022/05/09 00:29:41;;;;;;;8.97;8.27;;;;;;;9.80;100.00;97782.72;5037104;28;20235;-56
2022/05/09 00:32:09;;;;;;;7.97;7.37;;;;;;;9.66;100.00;97793.94;5003789;28;20711;-58
2022/05/09 00:34:38;;;;;;;9.13;8.23;;;;;;;9.69;100.00;97788.34;5018722;28;20507;-58
2022/05/09 00:37:06;;;;;;;8.20;7.60;;;;;;;9.63;100.00;97794.28;5042186;28;20669;-55
2022/05/09 00:39:36;;;;;;;8.83;8.23;;;;;;;9.73;100.00;97783.53;5024155;28;20559;-54
2022/05/09 00:42:08;;;;;;;9.03;8.27;;;;;;;9.62;100.00;97788.16;4998834;28;20234;-57
2022/05/09 00:44:36;;;;;;;9.53;8.73;;;;;;;9.66;100.00;97789.50;5042261;28;21084;-53
2022/05/09 00:47:04;;;;;;;9.37;8.47;;;;;;;9.53;100.00;97789.16;5042459;28;20590;-57
2022/05/09 00:49:36;;;;;;;9.33;8.63;;;;;;;9.55;100.00;97793.28;4995091;28;20761;-57
2022/05/09 00:52:07;;;;;;;8.33;7.73;;;;;;;9.54;100.00;97791.63;5041073;28;20311;-59
2022/05/09 00:54:39;;;;;;;8.83;8.13;;;;;;;9.50;100.00;97794.75;5044068;28;20220;-57
2022/05/09 00:57:10;;;;;;;9.57;8.87;;;;;;;9.48;100.00;97800.19;4970975;28;20337;-58
2022/05/09 00:59:40;;;;;;;9.50;8.80;;;;;;;9.44;100.00;97800.69;5039208;28;20291;-53
2022/05/09 01:02:10;;;;;;;9.43;8.70;;;;;;;9.41;100.00;97791.25;5042033;28;20281;-59
2022/05/09 01:04:45;;;;;;;9.70;8.97;;;;;;;9.37;100.00;97790.75;5041105;28;20319;-55
2022/05/09 01:07:14;;;;;;;10.07;9.27;;;;;;;9.36;100.00;97797.03;5018956;28;20209;-59
2022/05/09 01:09:43;;;;;;;9.47;8.77;;;;;;;9.44;100.00;97792.75;5043962;28;20560;-57
2022/05/09 01:12:13;;;;;;;10.30;9.37;;;;;;;9.43;100.00;97796.38;4995440;28;20223;-56
2022/05/09 01:14:41;;;;;;;9.67;8.87;;;;;;;9.40;100.00;97801.00;5038124;28;20199;-59
2022/05/09 01:17:11;;;;;;;9.90;9.20;;;;;;;9.36;100.00;97797.03;5019897;28;20225;-57
2022/05/09 01:19:41;;;;;;;10.03;9.10;;;;;;;9.36;100.00;97798.84;5043119;28;20206;-57
2022/05/09 01:22:23;;;;;;;10.30;9.40;;;;;;;9.32;100.00;97792.25;5016381;28;20751;-57
2022/05/09 01:24:52;;;;;;;10.00;9.20;;;;;;;9.18;100.00;97789.19;5041416;28;20198;-55
2022/05/09 01:27:20;;;;;;;10.67;9.67;;;;;;;9.22;100.00;97790.53;4992080;28;20249;-56
2022/05/09 01:29:54;;;;;;;11.17;10.27;;;;;;;9.26;100.00;97788.41;5042975;28;20309;-55
2022/05/09 01:32:27;;;;;;;9.83;8.93;;;;;;;9.23;100.00;97796.66;5012701;28;20857;-57
2022/05/09 01:34:59;;;;;;;11.37;10.37;;;;;;;9.12;100.00;97792.50;5041815;28;20206;-57
2022/05/09 01:37:30;;;;;;;10.47;9.57;;;;;;;9.02;100.00;97781.22;5014018;28;21458;-56
2022/05/09 01:39:58;;;;;;;10.67;9.67;;;;;;;9.01;100.00;97784.84;5039378;28;20203;-59
2022/05/09 01:42:26;;;;;;;10.80;9.83;;;;;;;9.00;100.00;97793.78;4991468;28;20824;-57
2022/05/09 01:44:54;;;;;;;11.03;10.20;;;;;;;9.01;100.00;97790.13;5043661;28;20205;-59
2022/05/09 01:50:08;;;;;;;10.97;10.07;;;;;;;8.94;100.00;97788.13;4988612;28;20222;-55
2022/05/09 01:52:39;;;;;;;11.03;10.00;;;;;;;8.87;100.00;97787.09;5037414;28;20223;-59
2022/05/09 01:55:08;;;;;;;10.50;9.70;;;;;;;8.81;100.00;97787.72;5025030;28;20721;-55
2022/05/09 01:57:36;;;;;;;10.73;9.63;;;;;;;8.74;100.00;97786.72;5041932;28;20342;-57
2022/05/09 02:00:05;;;;;;;10.93;10.03;;;;;;;8.67;100.00;97789.97;4995987;28;20437;-56
2022/05/09 02:02:34;;;;;;;11.60;10.70;;;;;;;8.75;100.00;97791.00;5043543;28;20234;-57
2022/05/09 02:05:03;;;;;;;11.93;10.93;;;;;;;8.72;100.00;97796.59;5019799;28;20218;-58
2022/05/09 02:07:31;;;;;;;11.63;10.70;;;;;;;8.69;100.00;97798.56;5044260;28;20302;-56
2022/05/09 02:10:00;;;;;;;11.47;10.67;;;;;;;8.75;100.00;97791.00;5015991;28;20208;-56
2022/05/09 02:12:29;;;;;;;11.93;11.00;;;;;;;8.72;100.00;97788.69;5044798;28;20318;-54
2022/05/09 02:14:57;;;;;;;11.03;10.23;;;;;;;8.64;100.00;97787.66;4991620;28;20435;-59
2022/05/09 02:17:25;;;;;;;13.23;12.13;;;;;;;8.58;100.00;97792.72;5034664;28;20309;-59
2022/05/09 02:19:55;;;;;;;12.73;11.60;;;;;;;8.59;100.00;97794.38;5024346;28;20515;-57
2022/05/09 02:22:23;;;;;;;13.33;11.90;;;;;;;8.54;100.00;97792.22;5048100;28;20229;-55
2022/05/09 02:24:52;;;;;;;12.20;11.30;;;;;;;8.53;100.00;97791.38;5018224;28;20214;-56
2022/05/09 02:27:22;;;;;;;12.23;11.20;;;;;;;8.52;100.00;97794.16;5046348;28;20262;-54
2022/05/09 02:29:50;;;;;;;12.47;11.43;;;;;;;8.50;100.00;97796.97;5006216;28;20203;-59
2022/05/09 02:32:20;;;;;;;13.00;11.90;;;;;;;8.44;100.00;97794.94;5039474;28;20218;-57
2022/05/09 02:34:48;;;;;;;12.73;11.73;;;;;;;8.37;100.00;97802.63;5038530;28;20203;-58
2022/05/09 02:37:18;;;;;;;13.03;12.00;;;;;;;8.31;100.00;97794.50;5036623;28;20738;-61
2022/05/09 02:39:46;;;;;;;12.60;11.47;;;;;;;8.25;100.00;97802.06;5020875;28;20219;-57
2022/05/09 02:42:14;;;;;;;13.07;11.87;;;;;;;8.20;100.00;97798.25;5036486;28;20515;-57
2022/05/09 02:44:44;;;;;;;13.87;12.57;;;;;;;8.17;100.00;97794.06;5033255;28;20214;-59
2022/05/09 02:47:13;;;;;;;12.77;11.57;;;;;;;8.14;100.00;97799.66;5021795;28;20489;-60
2022/05/09 02:49:41;;;;;;;12.90;11.80;;;;;;;8.12;100.00;97796.34;5047492;28;20388;-56
2022/05/09 02:52:09;;;;;;;14.20;13.00;;;;;;;8.09;100.00;97799.31;5024667;28;20330;-58
2022/05/09 02:54:37;;;;;;;14.47;13.17;;;;;;;8.08;100.00;97795.81;5047216;28;20733;-57
2022/05/09 02:57:07;;;;;;;14.37;13.27;;;;;;;8.06;100.00;97797.78;5019379;28;20630;-58
2022/05/09 02:59:35;;;;;;;14.97;13.60;;;;;;;8.02;100.00;97799.06;5044900;28;20198;-59
2022/05/09 03:02:07;;;;;;;14.10;12.93;;;;;;;7.99;100.00;97801.22;4997049;28;20473;-58
2022/05/09 03:04:40;;;;;;;13.73;12.53;;;;;;;7.99;100.00;97806.47;5038479;28;20218;-59
2022/05/09 03:07:10;;;;;;;15.20;13.83;;;;;;;7.96;100.00;97800.53;5028636;28;20227;-51
2022/05/09 03:09:38;;;;;;;14.20;13.00;;;;;;;7.90;100.00;97795.84;5041382;28;20235;-58
2022/05/09 03:12:07;;;;;;;14.43;13.23;;;;;;;7.91;100.00;97802.78;5023473;28;20762;-58
2022/05/09 03:14:36;;;;;;;13.93;12.67;;;;;;;7.90;100.00;97795.84;5032939;28;20219;-58
2022/05/09 03:17:07;;;;;;;14.07;12.63;;;;;;;7.86;100.00;97801.59;4979042;28;20381;-59
2022/05/09 03:19:35;;;;;;;15.10;13.80;;;;;;;7.85;100.00;97803.38;5043727;28;20202;-55
2022/05/09 03:22:03;;;;;;;15.07;13.63;;;;;;;7.84;100.00;97806.19;5038578;28;20415;-54
2022/05/09 03:24:31;;;;;;;14.37;12.97;;;;;;;7.79;100.00;97796.91;5043075;28;20215;-56
2022/05/09 03:27:02;;;;;;;14.40;13.10;;;;;;;7.79;100.00;97799.56;5020974;28;20313;-60
2022/05/09 03:29:30;;;;;;;14.80;13.60;;;;;;;7.76;100.00;97801.66;5045351;28;20284;-55
2022/05/09 03:32:00;;;;;;;14.53;13.17;;;;;;;7.73;100.00;97797.50;4990527;28;20780;-56
2022/05/09 03:34:30;;;;;;;15.30;14.10;;;;;;;7.75;100.00;97808.72;5040187;28;20212;-58
2022/05/09 03:36:58;;;;;;;14.93;13.73;;;;;;;7.73;100.00;97808.06;5039263;28;20225;-55
2022/05/09 03:39:26;;;;;;;14.87;13.57;;;;;;;7.76;100.00;97807.75;5022345;28;20554;-61
2022/05/09 03:41:54;;;;;;;15.77;14.37;;;;;;;7.79;100.00;97802.19;5019358;28;20238;-55
2022/05/09 03:44:22;;;;;;;15.77;14.47;;;;;;;7.79;100.00;97801.34;5039954;28;20207;-61
2022/05/09 03:46:50;;;;;;;14.67;13.40;;;;;;;7.80;100.00;97803.00;5039427;28;20210;-55
2022/05/09 03:49:19;;;;;;;20.13;18.38;;;;;;;7.84;100.00;97808.81;5009851;28;20453;-59
2022/05/09 03:51:48;;;;;;;17.60;16.20;;;;;;;7.86;100.00;97806.88;5035048;28;20231;-57
2022/05/09 03:54:16;;;;;;;16.03;14.63;;;;;;;7.90;100.00;97803.75;5021032;28;20734;-60
2022/05/09 03:56:45;;;;;;;16.70;14.93;;;;;;;7.93;100.00;97810.56;5011980;28;20737;-59
2022/05/09 03:59:13;;;;;;;17.20;15.70;;;;;;;7.94;100.00;97817.47;5037706;28;20229;-55
2022/05/09 04:01:42;;;;;;;16.47;14.97;;;;;;;8.03;100.00;97813.13;5039385;28;20386;-58
2022/05/09 04:04:10;;;;;;;22.17;20.27;;;;;;;8.09;100.00;97813.31;4980721;28;20458;-53
2022/05/09 04:06:38;;;;;;;18.53;16.73;;;;;;;8.13;100.00;97810.38;5037055;28;20853;-57
2022/05/09 04:09:08;;;;;;;15.80;14.47;;;;;;;8.19;100.00;97813.22;5041118;28;20310;-56
2022/05/09 04:11:36;;;;;;;17.53;15.83;;;;;;;8.19;100.00;97821.16;5021513;28;20227;-57
2022/05/09 04:14:05;;;;;;;15.97;14.50;;;;;;;8.19;100.00;97822.97;5026115;28;20268;-60
2022/05/09 04:16:50;;;;;;;15.17;13.87;;;;;;;8.25;100.00;97819.72;5040076;28;20234;-59
2022/05/09 04:19:18;;;;;;;16.03;14.53;;;;;;;8.31;100.00;97824.38;5021640;28;20215;-58
2022/05/09 04:21:46;;;;;;;19.00;17.30;;;;;;;8.30;100.00;97830.66;5007973;28;20941;-57
2022/05/09 04:24:16;;;;;;;15.67;14.27;;;;;;;8.37;100.00;97826.41;5048122;28;20240;-59
2022/05/09 04:26:44;;;;;;;15.53;14.13;;;;;;;8.38;100.00;97827.25;5025315;28;20322;-58
2022/05/09 04:29:12;;;;;;;14.93;13.53;;;;;;;8.44;100.00;97818.69;5020585;28;20206;-60
2022/05/09 04:31:40;;;;;;;13.83;12.63;;;;;;;8.48;100.00;97832.41;5033018;28;20303;-59
2022/05/09 04:34:09;;;;;;;14.97;13.57;;;;;;;8.51;100.00;97829.47;5035559;28;20687;-57
2022/05/09 04:36:38;;;;;;;15.23;13.83;;;;;;;8.56;100.00;97823.75;5002350;28;20215;-59
2022/05/09 04:39:06;;;;;;;14.50;13.30;;;;;;;8.63;100.00;97830.91;5037417;28;20226;-55
2022/05/09 04:41:36;;;;;;;15.83;14.23;;;;;;;8.68;100.00;97833.91;5023539;28;20367;-59
2022/05/09 04:44:06;;;;;;;14.30;12.90;;;;;;;8.81;100.00;97835.28;5018245;28;20310;-54
2022/05/09 04:46:34;;;;;;;14.67;13.57;;;;;;;8.92;100.00;97837.69;5039930;28;20583;-59
2022/05/09 04:49:03;;;;;;;14.83;13.67;;;;;;;9.03;100.00;97839.19;5039966;28;20254;-56
2022/05/09 04:51:31;;;;;;;14.70;13.40;;;;;;;9.14;100.00;97838.09;5029663;28;20669;-62
2022/05/09 04:54:00;;;;;;;14.07;12.83;;;;;;;9.23;100.00;97833.69;5004965;28;20202;-57
2022/05/09 04:56:28;;;;;;;13.33;12.23;;;;;;;9.27;100.00;97835.00;5030634;28;20552;-59
2022/05/09 04:58:57;;;;;;;16.47;15.07;;;;;;;9.34;100.00;97838.66;5023404;28;20574;-55
2022/05/09 05:01:25;;;;;;;15.03;13.77;;;;;;;9.43;100.00;97842.19;5042619;28;20341;-55
2022/05/09 05:03:53;;;;;;;12.50;11.50;;;;;;;9.51;100.00;97834.25;5033880;28;20892;-57
2022/05/09 05:06:21;;;;;;;12.57;11.47;;;;;;;9.58;100.00;97838.91;5038149;28;20648;-58
2022/05/09 05:08:49;;;;;;;12.87;11.73;;;;;;;9.59;100.00;97838.75;4999013;28;20332;-56
2022/05/09 05:11:17;;;;;;;13.50;12.40;;;;;;;9.68;100.00;97835.13;5026579;28;20905;-56
2022/05/09 05:13:45;;;;;;;12.73;11.63;;;;;;;9.91;100.00;97844.28;5037405;28;20221;-59
2022/05/09 05:16:15;;;;;;;12.47;11.47;;;;;;;9.98;100.00;97834.69;5011887;28;20215;-56
2022/05/09 05:18:44;;;;;;;12.27;11.27;;;;;;;10.11;100.00;97829.75;5015794;28;20227;-61
2022/05/09 05:21:13;;;;;;;12.00;10.90;;;;;;;10.25;100.00;97835.34;5041122;28;20727;-58
2022/05/09 05:23:41;;;;;;;10.83;9.93;;;;;;;10.27;100.00;97841.31;4987604;28;20207;-60
2022/05/09 05:26:11;;;;;;;11.87;10.87;;;;;;;10.31;100.00;97832.03;5038287;28;20238;-60
2022/05/09 05:28:39;;;;;;;11.60;10.73;;;;;;;10.46;100.00;97834.88;5032133;28;20337;-59
2022/05/09 05:31:16;;;;;;;11.47;10.37;;;;;;;10.49;100.00;97834.53;5033125;28;20325;-59
2022/05/09 05:33:45;;;;;;;10.50;9.57;;;;;;;10.62;100.00;97838.53;5035598;28;20207;-59
2022/05/09 05:36:14;;;;;;;10.80;9.90;;;;;;;10.65;100.00;97833.69;5035914;28;20924;-59
2022/05/09 05:38:43;;;;;;;10.70;9.90;;;;;;;10.76;100.00;97834.31;5024263;28;20637;-60
2022/05/09 05:41:11;;;;;;;11.43;10.63;;;;;;;10.89;100.00;97847.06;4999041;28;20234;-59
2022/05/09 05:43:39;;;;;;;10.20;9.30;;;;;;;11.10;100.00;97851.81;5011262;28;20451;-61
2022/05/09 05:46:07;;;;;;;10.67;9.77;;;;;;;11.20;100.00;97848.97;5029445;28;20212;-62
2022/05/09 05:48:36;;;;;;;10.10;9.20;;;;;;;11.32;100.00;97846.75;5034710;28;20404;-61
2022/05/09 05:51:05;;;;;;;10.63;9.80;;;;;;;11.41;100.00;97856.34;5037872;28;20233;-58
2022/05/09 05:53:34;;;;;;;10.77;9.70;;;;;;;11.59;100.00;97848.13;5023834;28;20207;-57
2022/05/09 05:56:02;;;;;;;10.70;9.60;;;;;;;11.62;100.00;97853.06;4991290;28;20246;-60
2022/05/09 05:58:31;;;;;;;10.53;9.73;;;;;;;11.81;100.00;97859.78;5013604;28;20839;-61
2022/05/09 06:00:59;;;;;;;11.77;10.43;;;;;;;11.89;100.00;97856.25;5041594;28;20227;-59
2022/05/09 06:03:27;;;;;;;10.40;9.60;;;;;;;12.03;100.00;97857.34;5025472;28;21099;-62
2022/05/09 06:05:56;;;;;;;10.03;9.03;;;;;;;12.09;100.00;97858.47;5041371;28;20202;-60
2022/05/09 06:08:24;;;;;;;9.90;9.00;;;;;;;12.39;100.00;97861.22;5025813;28;21085;-59
2022/05/09 06:10:52;;;;;;;9.77;9.07;;;;;;;12.50;100.00;97854.66;5043001;28;20243;-58
2022/05/09 06:13:21;;;;;;;10.13;9.20;;;;;;;12.55;100.00;97857.59;4990685;28;20229;-61
2022/05/09 06:15:49;;;;;;;11.37;9.80;;;;;;;12.69;100.00;97862.13;5037593;28;20692;-62
2022/05/09 06:18:18;;;;;;;9.67;8.73;;;;;;;12.77;100.00;97860.41;5028673;28;20306;-62
2022/05/09 06:20:46;;;;;;;9.70;9.00;;;;;;;13.05;100.00;97860.59;5036280;28;20314;-63
2022/05/09 06:23:17;;;;;;;9.87;8.97;;;;;;;13.22;100.00;97865.72;5024318;28;20290;-61
2022/05/09 06:25:46;;;;;;;9.43;8.60;;;;;;;13.44;100.00;97872.81;5039454;28;20212;-59
2022/05/09 06:28:15;;;;;;;9.13;8.40;;;;;;;13.57;100.00;97872.16;4991408;28;20217;-60
2022/05/09 06:30:44;;;;;;;8.17;7.57;;;;;;;13.75;100.00;97879.75;5037257;28;20327;-62
2022/05/09 06:33:12;;;;;;;8.30;7.70;;;;;;;13.85;100.00;97870.63;5026687;28;20222;-59
2022/05/09 06:35:43;;;;;;;8.23;7.63;;;;;;;14.01;100.00;97874.91;5036826;28;20855;-62
2022/05/09 06:38:14;;;;;;;8.13;7.33;;;;;;;14.13;100.00;97872.56;5010943;28;20652;-59
2022/05/09 06:40:45;;;;;;;8.40;7.80;;;;;;;14.27;100.00;97871.66;5035933;28;20743;-59
2022/05/09 06:43:13;;;;;;;8.20;7.50;;;;;;;14.65;100.00;97875.91;4981549;28;20356;-60
2022/05/09 06:45:42;;;;;;;7.93;7.23;;;;;;;14.89;100.00;97876.50;5019291;28;20323;-55
2022/05/09 06:48:10;;;;;;;7.50;6.90;;;;;;;15.20;100.00;97869.91;5030704;28;20592;-58
2022/05/09 06:50:40;;;;;;;6.30;5.90;;;;;;;15.49;100.00;97876.84;5041463;28;20241;-59
2022/05/09 06:53:09;;;;;;;7.53;6.83;;;;;;;15.72;100.00;97877.53;5042335;28;20207;-60
2022/05/09 06:55:49;;;;;;;6.90;6.30;;;;;;;15.71;100.00;97883.91;5038837;28;20253;-58
2022/05/09 06:58:21;;;;;;;6.90;6.40;;;;;;;15.78;100.00;97876.75;4997842;28;20824;-60
2022/05/09 07:00:50;;;;;;;7.13;6.67;;;;;;;16.00;100.00;97885.50;5040079;28;20235;-58
2022/05/09 07:03:19;;;;;;;6.57;6.17;;;;;;;16.06;100.00;97875.81;5036319;28;20277;-60
2022/05/09 07:05:49;;;;;;;7.10;6.60;;;;;;;16.30;100.00;97874.44;5031787;28;20245;-62
2022/05/09 07:08:18;;;;;;;7.00;6.40;;;;;;;16.37;100.00;97879.78;5038620;28;20384;-57
2022/05/09 07:10:48;;;;;;;7.93;7.23;;;;;;;16.27;100.00;97879.38;5043824;28;20592;-62
2022/05/09 07:13:36;;;;;;;7.00;6.50;;;;;;;16.36;100.00;97883.47;5045226;28;20203;-63
2022/05/09 07:16:04;;;;;;;6.10;5.70;;;;;;;16.35;100.00;97880.00;4977227;28;20332;-59
2022/05/09 07:18:32;;;;;;;6.83;6.23;;;;;;;16.57;100.00;97893.16;5039362;28;20278;-60
2022/05/09 07:21:01;;;;;;;6.23;5.83;;;;;;;16.62;100.00;97889.88;5034871;28;20226;-60
2022/05/09 07:23:29;;;;;;;6.67;6.17;;;;;;;16.77;100.00;97887.81;5044745;28;20674;-59
2022/05/09 07:25:58;;;;;;;6.10;5.60;;;;;;;16.90;100.00;97887.00;5041383;28;20266;-59
2022/05/09 07:28:28;;;;;;;6.47;6.07;;;;;;;16.84;100.00;97878.97;5037797;28;20643;-59
2022/05/09 07:30:57;;;;;;;7.43;6.87;;;;;;;17.09;100.00;97886.38;5001601;28;20488;-60
2022/05/09 07:33:25;;;;;;;6.87;6.07;;;;;;;17.14;100.00;97889.25;5039587;28;20229;-58
2022/05/09 07:35:53;;;;;;;6.80;6.30;;;;;;;17.23;100.00;97898.69;5027456;28;20215;-59
2022/05/09 07:38:21;;;;;;;7.20;6.60;;;;;;;17.33;100.00;97891.06;5040199;28;20214;-60
2022/05/09 07:40:49;;;;;;;6.57;6.13;;;;;;;17.47;100.00;97899.06;5039057;28;20572;-60
2022/05/09 07:43:20;;;;;;;6.87;6.27;;;;;;;17.48;100.00;97896.19;5042615;28;20234;-60
2022/05/09 07:45:49;;;;;;;6.20;5.80;;;;;;;17.36;100.00;97898.69;5002895;28;20824;-56
2022/05/09 07:48:19;;;;;;;6.90;6.07;;;;;;;17.55;100.00;97896.13;5042132;28;20662;-59
2022/05/09 07:50:47;;;;;;;6.87;6.37;;;;;;;17.73;100.00;97898.13;5026567;28;20979;-59
2022/05/09 07:53:18;;;;;;;5.97;5.57;;;;;;;17.81;100.00;97899.75;5039356;28;20802;-58
2022/05/09 07:55:46;;;;;;;6.60;6.10;;;;;;;17.78;100.00;97901.00;5039523;28;20710;-60
2022/05/09 07:58:14;;;;;;;6.90;6.40;;;;;;;17.84;100.00;97893.97;5043552;28;20635;-58
2022/05/09 08:00:45;;;;;;;6.27;5.87;;;;;;;17.87;100.00;97898.91;4997252;28;20229;-60
2022/05/09 08:03:15;;;;;;;7.10;6.60;;;;;;;17.73;100.00;97892.78;5045290;28;20203;-60
2022/05/09 08:05:44;;;;;;;6.87;6.37;;;;;;;17.97;100.00;97898.44;5024716;28;20313;-60
2022/05/09 08:08:12;;;;;;;7.40;6.80;;;;;;;18.01;100.00;97893.53;5045807;28;20294;-60
2022/05/09 08:10:42;;;;;;;6.37;5.87;;;;;;;18.11;100.00;97895.72;5035200;28;20196;-61
2022/05/09 08:13:11;;;;;;;6.47;5.97;;;;;;;18.15;100.00;97886.19;5045849;28;20407;-57
2022/05/09 08:15:39;;;;;;;7.87;7.17;;;;;;;18.08;100.00;97888.94;5001652;28;20214;-61
2022/05/09 08:18:09;;;;;;;6.63;6.13;;;;;;;18.31;100.00;97884.84;5040660;28;20245;-59
2022/05/09 08:20:39;;;;;;;6.40;5.80;;;;;;;18.47;100.00;97884.34;5028813;28;20219;-60
2022/05/09 08:23:09;;;;;;;6.83;6.00;;;;;;;18.39;100.00;97884.63;5040907;28;20229;-60
2022/05/09 08:25:39;;;;;;;6.17;5.57;;;;;;;18.72;100.00;97888.06;5038900;28;20607;-60
2022/05/09 08:28:08;;;;;;;5.50;5.20;;;;;;;18.83;100.00;97891.91;5046512;28;20301;-59
2022/05/09 08:30:38;;;;;;;6.53;6.13;;;;;;;18.83;100.00;97890.03;5034215;28;20245;-59
2022/05/09 08:33:11;;;;;;;6.30;5.80;;;;;;;19.02;100.00;97880.19;4999679;28;20788;-57
2022/05/09 08:35:39;;;;;;;6.27;5.77;;;;;;;19.13;100.00;97885.84;5037894;28;20318;-56
2022/05/09 08:38:07;;;;;;;6.27;5.77;;;;;;;19.11;100.00;97883.41;5027501;28;20250;-59
2022/05/09 08:40:37;;;;;;;6.60;6.10;;;;;;;18.99;100.00;97875.25;5035672;28;20342;-59
2022/05/09 08:43:14;;;;;;;6.30;5.73;;;;;;;19.09;100.00;97880.13;5042406;28;20235;-61
2022/05/09 08:45:47;;;;;;;6.20;5.70;;;;;;;19.03;100.00;97879.13;5039776;28;20393;-61
2022/05/09 08:48:33;;;;;;;4.87;4.57;;;;;;;19.38;100.00;97886.63;4995671;28;20261;-60
2022/05/09 08:51:20;;;;;;;6.17;5.73;;;;;;;19.47;100.00;97887.16;5040513;28;20669;-61
2022/05/09 08:53:52;;;;;;;7.90;5.80;;;;;;;19.52;100.00;97884.63;5026191;28;20244;-59
2022/05/09 08:56:20;;;;;;;5.47;5.07;;;;;;;19.83;100.00;97881.97;5034940;28;20216;-60
2022/05/09 08:58:51;;;;;;;6.67;4.90;;;;;;;19.57;100.00;97875.88;5043182;28;20256;-60
2022/05/09 09:01:22;;;;;;;5.40;5.10;;;;;;;19.65;100.00;97885.50;5042804;28;20227;-61
2022/05/09 09:03:57;;;;;;;4.73;4.43;;;;;;;19.45;100.00;97888.41;4993317;28;22492;-61
2022/05/09 09:06:56;;;;;;;5.37;4.97;;;;;;;19.74;100.00;97884.16;5034521;28;20313;-61
2022/05/09 09:09:35;;;;;;;5.37;4.90;;;;;;;19.66;100.00;97887.97;5025543;28;20335;-60
2022/05/09 09:12:10;;;;;;;5.90;5.40;;;;;;;19.89;100.00;97880.25;5036936;28;20720;-60
2022/05/09 09:14:48;;;;;;;5.03;4.63;;;;;;;19.74;100.00;97877.94;5036615;28;20198;-61
2022/05/09 09:17:25;;;;;;;5.27;4.87;;;;;;;19.90;100.00;97874.69;5041449;28;20238;-60
2022/05/09 09:20:12;;;;;;;4.50;4.17;;;;;;;19.85;100.00;97876.38;4995219;28;20733;-59
2022/05/09 09:23:00;;;;;;;4.73;4.37;;;;;;;20.08;100.00;97872.97;5038454;28;20241;-58
2022/05/09 09:25:41;;;;;;;5.00;4.70;;;;;;;20.24;100.00;97876.91;5020494;28;20243;-58
2022/05/09 09:28:12;;;;;;;4.97;4.67;;;;;;;20.31;100.00;97871.41;5003044;28;20236;-60
2022/05/09 09:30:41;;;;;;;4.93;4.63;;;;;;;20.51;100.00;97880.00;5000210;28;20201;-58
2022/05/09 09:33:12;;;;;;;5.40;4.97;;;;;;;20.39;99.05;97871.09;5001979;28;20209;-59
2022/05/09 09:35:54;;;;;;;7.27;6.63;;;;;;;20.09;100.00;97869.25;4957799;28;20438;-58
2022/05/09 09:38:34;;;;;;;5.30;4.80;;;;;;;20.44;100.00;97863.13;5003114;28;20212;-59
2022/05/09 09:41:23;;;;;;;4.80;4.50;;;;;;;20.87;99.25;97863.09;4986708;28;20347;-59
2022/05/09 09:43:57;;;;;;;6.03;4.80;;;;;;;20.78;99.67;97871.50;4999944;28;20931;-57
2022/05/09 09:46:25;;;;;;;5.50;4.70;;;;;;;20.49;97.28;97870.53;5002022;28;20542;-59
2022/05/09 09:49:07;;;;;;;4.60;4.10;;;;;;;20.70;98.96;97863.75;5002025;28;20349;-60
2022/05/09 09:51:46;;;;;;;5.10;4.70;;;;;;;20.90;98.21;97860.75;4948564;28;20481;-55
2022/05/09 09:54:18;;;;;;;5.10;4.70;;;;;;;20.83;98.85;97857.34;5001105;28;20215;-58
2022/05/09 09:56:46;;;;;;;5.20;4.90;;;;;;;21.06;93.98;97861.91;4985311;28;20463;-59
2022/05/09 09:59:21;;;;;;;4.63;4.33;;;;;;;21.25;86.23;97862.59;4999617;28;20632;-59
2022/05/09 10:02:09;;;;;;;4.97;4.40;;;;;;;21.47;89.44;97861.16;5002452;28;20315;-57
2022/05/09 10:04:37;;;;;;;4.70;4.40;;;;;;;21.23;86.78;97853.09;4953833;28;20765;-60
2022/05/09 10:07:10;;;;;;;4.43;4.03;;;;;;;21.40;85.30;97854.03;5002254;28;20280;-58
2022/05/09 10:09:40;;;;;;;4.40;4.00;;;;;;;21.18;85.90;97850.31;5003026;28;20544;-59
2022/05/09 10:12:19;;;;;;;4.70;4.40;;;;;;;21.11;87.49;97850.41;4988493;28;20704;-61
2022/05/09 10:14:48;;;;;;;4.50;4.20;;;;;;;21.10;79.28;97844.22;5001390;28;20238;-59
2022/05/09 10:17:19;;;;;;;4.60;4.30;;;;;;;21.70;78.37;97846.81;5003966;28;20204;-58
2022/05/09 10:19:47;;;;;;;4.47;4.07;;;;;;;21.86;76.75;97844.41;4960842;28;20449;-59
2022/05/09 10:25:09;;;;;;;4.83;4.37;;;;;;;21.74;69.85;97841.75;4999465;28;20208;-60
2022/05/09 10:27:39;;;;;;;4.27;3.83;;;;;;;21.90;74.01;97848.25;5018093;28;20420;-59
2022/05/09 10:30:10;;;;;;;4.17;3.87;;;;;;;21.89;61.61;97835.81;5040083;28;20237;-60
2022/05/09 10:32:44;;;;;;;3.70;3.50;;;;;;;21.88;67.88;97835.00;5032733;28;20871;-58
2022/05/09 10:35:19;;;;;;;4.43;4.13;;;;;;;21.94;65.31;97833.22;5039727;28;20269;-60
2022/05/09 10:37:53;;;;;;;4.33;4.03;;;;;;;22.14;60.99;97827.34;5013070;28;20745;-61
2022/05/09 10:40:25;;;;;;;3.63;3.43;;;;;;;22.23;61.06;97830.47;5044044;28;20643;-60
2022/05/09 10:42:59;;;;;;;4.30;3.93;;;;;;;22.26;55.72;97822.72;5030711;28;20254;-60
2022/05/09 10:45:29;;;;;;;3.93;3.63;;;;;;;22.36;55.31;97822.09;5038830;28;20255;-59
2022/05/09 10:48:02;;;;;;;3.67;3.37;;;;;;;22.44;53.00;97814.63;5044257;28;20294;-60
2022/05/09 10:50:34;;;;;;;3.47;3.17;;;;;;;22.51;55.78;97813.41;5007332;28;20265;-61
2022/05/09 10:53:12;;;;;;;3.73;3.53;;;;;;;22.64;54.29;97809.56;5045891;28;20610;-62
2022/05/09 10:55:42;;;;;;;3.93;3.67;;;;;;;22.57;52.12;97808.91;5038064;28;20234;-62
2022/05/09 10:58:14;;;;;;;4.10;3.70;;;;;;;22.50;51.83;97800.97;5036374;28;20309;-61
2022/05/09 11:00:49;;;;;;;7.53;3.80;;;;;;;22.59;51.29;97803.28;5038680;28;20310;-58
2022/05/09 11:03:25;;;;;;;3.70;3.50;;;;;;;22.79;47.85;97798.16;5044665;28;20805;-60
2022/05/09 11:06:02;;;;;;;3.70;3.53;;;;;;;23.12;49.98;97795.66;5041383;28;21185;-57
2022/05/09 11:08:39;;;;;;;4.33;4.03;;;;;;;22.99;51.99;97789.53;4981734;28;20947;-59
2022/05/09 11:11:15;;;;;;;4.27;3.87;;;;;;;23.02;49.58;97790.09;5047236;28;20313;-58
2022/05/09 11:13:52;;;;;;;4.43;4.00;;;;;;;23.39;53.13;97779.50;5003429;28;20299;-62
2022/05/09 11:16:28;;;;;;;4.30;4.10;;;;;;;23.52;52.81;97791.00;5049376;28;20796;-59
2022/05/09 11:19:14;;;;;;;4.50;3.80;;;;;;;23.74;46.30;97784.75;5043717;28;20202;-62
2022/05/09 11:21:48;;;;;;;6.00;5.50;;;;;;;23.64;56.72;97788.16;5001487;28;22552;-60
2022/05/09 11:24:30;;;;;;;4.97;4.20;;;;;;;23.64;60.05;97775.44;5043501;28;20235;-59
2022/05/09 11:27:07;;;;;;;4.60;4.30;;;;;;;23.83;56.91;97765.06;5028516;28;20230;-59
2022/05/09 11:30:07;;;;;;;4.50;4.20;;;;;;;23.40;62.07;97762.22;5009796;28;20206;-60
2022/05/09 11:32:41;;;;;;;4.73;4.27;;;;;;;22.85;65.16;97761.25;5041691;28;20223;-60
2022/05/09 11:35:17;;;;;;;4.33;4.13;;;;;;;22.35;68.33;97761.06;5045422;28;20211;-61
2022/05/09 11:38:06;;;;;;;4.47;4.17;;;;;;;22.17;62.24;97759.44;4985811;28;20299;-60
2022/05/09 11:40:39;;;;;;;4.33;4.13;;;;;;;22.17;66.20;97759.44;5046133;28;20269;-60
2022/05/09 11:43:30;;;;;;;4.63;4.33;;;;;;;22.40;61.46;97757.59;5031787;28;21141;-63
2022/05/09 11:46:05;;;;;;;4.43;3.67;;;;;;;21.39;63.16;97762.59;5010434;28;20297;-62
2022/05/09 11:48:40;;;;;;;4.40;4.20;;;;;;;21.37;69.50;97759.34;5037101;28;20555;-63